Details From LDZD - Zadar
To LDZA - Zagreb
Flight Number -
Tags Generated
Created
Modified
Stats Distance 104 nm / 192 km
Max Altitude 0 ft / 0 m
Waypoints 2
Social Downloads 0
Likes 0
Share VATSIM

Download

Looking for another format? Having issues loading an existing format? Contact us
Advertisement - Login to hide

Notes

Generated

Route

LDZD LDZA

ID Type Via Altitude Latitude Longitude Leg Dist Tot Dist Heading (true) Name
O LDZD APT - 0 ft / 0 m 44.07939˚ 15.34116˚ - 0 nm - -
O LDZA APT - 0 ft / 0 m 45.73188˚ 16.05197˚ 103 nm 103 nm 17° / 17° -

Altitude Profile

Advertisement - Login to hide

LDZD

Details ICAO LDZD (ZAD)
Name ZADAR
Region Croatia
Timezone Europe/Zagreb (UTC+1.0)
Stats Elevation 289 ft / 88 m (AMSL)
Location 44.097225° 15.347978°
Runways 2
Magnetic Variation 3.700° E

METAR

LDZD 111930Z 15021G31KT 9999 FEW030 14/09 Q1006 NOSIG

Decode

TAF

TAF LDZD 111725Z 1118/1218 15025G35KT 9999 FEW030 TX14/1118Z TN12/1206Z BECMG 1213/1215 15012KT

Decode

Departure Runways

ID Width Length Bearing (true) Bearing (mag) Surface Threshold Offset Overrun Length
04 147 ft / 45 m 6,519 ft / 1,987 m 41.52° 37.82° Asphalt 0 ft / 0 m 0 ft / 0 m
14 147 ft / 45 m 8,159 ft / 2,487 m 135.79° 132.09° Asphalt 0 ft / 0 m 0 ft / 0 m
22 147 ft / 45 m 6,519 ft / 1,987 m 221.53° 217.83° Asphalt 0 ft / 0 m 0 ft / 0 m
32 147 ft / 45 m 8,159 ft / 2,487 m 315.81° 312.11° Asphalt 0 ft / 0 m 0 ft / 0 m

LDZA

Details ICAO LDZA (ZAG)
Name Zagreb
Region Croatia
Timezone Europe/Zagreb (UTC+1.0)
Stats Elevation 353 ft / 108 m (AMSL)
Location 45.741890° 16.067200°
Runways 1
Magnetic Variation 3.958° E

METAR

LDZA 111930Z 19018KT 130V230 CAVOK 15/06 Q0999 TEMPO 19015G25KT

Decode

TAF

TAF LDZA 111725Z 1118/1218 20015KT CAVOK TX16/1212Z TN08/1217Z TEMPO 1118/1120 20025G35KT PROB30 TEMPO 1120/1208 20020G30KT BECMG 1210/1212 23010KT BECMG 1213/1215 32010KT TEMPO 1213/1218 RA BKN014 PROB40 TEMPO 1213/1216 4000 SHRA SCT020TCU BKN030

Decode

Destination Runways

ID Width Length Bearing (true) Bearing (mag) Surface Threshold Offset Overrun Length
05 148 ft / 45 m 10,659 ft / 3,249 m 46.69° 42.73° Asphalt 0 ft / 0 m 195 ft / 59 m
23 148 ft / 45 m 10,659 ft / 3,249 m 226.71° 222.75° Asphalt 0 ft / 0 m 195 ft / 59 m

Approach Navaids

Runway Type Ident Frequency Range Bearing (true) Bearing (mag) Slope Elevation
05 Localiser IZA 109.50 MHz 25 nm / 46 km 46.79° 42.83° - 335 ft / 102 m (AMSL)
05 Glidescope IZA 109.50 MHz 25 nm / 46 km 46.79° 42.83° 3.00° 344 ft / 105 m (AMSL)
05 DME IZA 109.50 MHz 25 nm / 46 km - - - 372 ft / 113 m (AMSL)
23 Localiser IZG 109.10 MHz 25 nm / 46 km 226.81° 222.85° - 344 ft / 105 m (AMSL)
23 Glidescope IZG 109.10 MHz 25 nm / 46 km 226.81° 222.85° 3.00° 344 ft / 105 m (AMSL)

Popular Alternatives